Time;durP1;ratioP1;P1;durP2;ratioP2;P2;SDS_P1;SDS_P2;PMS_P1;PMS_P2;Temp;Humidity;BMP_temperature;BMP_pressure;BME280_temperature;BME280_humidity;BME280_pressure;Samples;Min_cycle;Max_cycle;Signal;HPM_P1;HPM_P2
2021/05/10 00:00:56;;;;;;;2.13;1.80;;;19.30;99.90;;;;;;5125580;27;20197;-55
2021/05/10 00:03:23;;;;;;;2.10;2.00;;;19.20;99.90;;;;;;5098112;27;20217;-54
2021/05/10 00:05:51;;;;;;;2.43;2.07;;;19.20;99.90;;;;;;5115113;27;20212;-55
2021/05/10 00:08:18;;;;;;;1.73;1.63;;;19.20;99.90;;;;;;5132666;27;20200;-55
2021/05/10 00:10:45;;;;;;;3.17;2.10;;;19.10;99.90;;;;;;5141884;27;20926;-55
2021/05/10 00:13:14;;;;;;;2.00;1.90;;;19.00;99.90;;;;;;5145410;27;20195;-57
2021/05/10 00:15:40;;;;;;;2.13;1.93;;;19.00;99.90;;;;;;5129374;27;20286;-54
2021/05/10 00:18:06;;;;;;;3.17;2.10;;;19.00;99.90;;;;;;5129442;27;20196;-53
2021/05/10 00:20:35;;;;;;;2.57;1.83;;;18.90;99.90;;;;;;5126587;27;20195;-54
2021/05/10 00:23:04;;;;;;;1.80;1.70;;;18.90;99.90;;;;;;5117304;27;20211;-56
2021/05/10 00:25:30;;;;;;;2.20;2.10;;;18.90;99.90;;;;;;5125157;27;20206;-55
2021/05/10 00:27:56;;;;;;;3.83;2.00;;;18.90;99.90;;;;;;5135932;27;20196;-55
2021/05/10 00:30:23;;;;;;;2.20;2.00;;;18.90;99.90;;;;;;5143095;27;20190;-54
2021/05/10 00:32:50;;;;;;;1.70;1.60;;;18.80;99.90;;;;;;5133235;27;20217;-51
2021/05/10 00:35:17;;;;;;;1.80;1.70;;;18.80;99.90;;;;;;5119381;27;20215;-55
2021/05/10 00:37:43;;;;;;;3.03;1.80;;;18.80;99.90;;;;;;5107556;27;20195;-55
2021/05/10 00:40:12;;;;;;;2.03;1.90;;;18.70;99.90;;;;;;5136858;27;20203;-56
2021/05/10 00:42:39;;;;;;;1.90;1.80;;;18.70;99.90;;;;;;5131293;27;20280;-53
2021/05/10 00:45:07;;;;;;;1.90;1.63;;;18.70;99.90;;;;;;5145242;27;20184;-56
2021/05/10 00:47:34;;;;;;;3.23;2.00;;;18.70;99.90;;;;;;5124895;27;20200;-54
2021/05/10 00:50:00;;;;;;;1.83;1.73;;;18.70;99.90;;;;;;5099817;27;20205;-54
2021/05/10 00:52:26;;;;;;;2.03;1.93;;;18.60;99.90;;;;;;5094981;27;20213;-54
2021/05/10 00:54:54;;;;;;;1.63;1.53;;;18.60;99.90;;;;;;5123726;27;20207;-57
2021/05/10 00:57:21;;;;;;;1.67;1.50;;;18.60;99.90;;;;;;5137611;27;20501;-53
2021/05/10 00:59:51;;;;;;;2.83;1.80;;;18.50;99.90;;;;;;5137518;27;20832;-57
2021/05/10 01:02:17;;;;;;;2.17;1.60;;;18.50;99.90;;;;;;5138256;27;20227;-56
2021/05/10 01:04:45;;;;;;;4.40;1.73;;;18.50;99.90;;;;;;5124006;27;20208;-54
2021/05/10 01:07:13;;;;;;;3.43;2.17;;;18.40;99.90;;;;;;5109797;27;20220;-56
2021/05/10 01:09:39;;;;;;;3.47;1.50;;;18.40;99.90;;;;;;5125731;27;20211;-53
2021/05/10 01:12:06;;;;;;;1.80;1.70;;;18.40;99.90;;;;;;5122815;27;20192;-54
2021/05/10 01:14:33;;;;;;;2.33;1.70;;;18.30;99.90;;;;;;5132601;27;20195;-56
2021/05/10 01:17:00;;;;;;;2.03;1.93;;;18.20;99.90;;;;;;5140363;27;20232;-56
2021/05/10 01:19:27;;;;;;;2.27;1.73;;;18.20;99.90;;;;;;5129179;27;20276;-53
2021/05/10 01:21:57;;;;;;;2.53;1.60;;;18.20;99.90;;;;;;5101338;27;20788;-57
2021/05/10 01:24:24;;;;;;;1.50;1.40;;;18.10;99.90;;;;;;5097197;27;20217;-55
2021/05/10 01:26:51;;;;;;;4.37;1.83;;;18.00;99.90;;;;;;5131774;27;20189;-56
2021/05/10 01:29:18;;;;;;;2.00;1.80;;;17.90;99.90;;;;;;5143629;27;20202;-56
2021/05/10 01:31:44;;;;;;;2.80;1.57;;;18.00;99.90;;;;;;5127059;27;20269;-53
2021/05/10 01:34:11;;;;;;;3.03;1.33;;;17.90;99.90;;;;;;5137143;27;20267;-55
2021/05/10 01:36:37;;;;;;;1.77;1.63;;;17.90;99.90;;;;;;5122187;27;20207;-53
2021/05/10 01:39:04;;;;;;;3.10;1.70;;;17.90;99.90;;;;;;5106586;27;20931;-53
2021/05/10 01:41:31;;;;;;;1.73;1.63;;;17.80;99.90;;;;;;5132381;27;20253;-54
2021/05/10 01:43:57;;;;;;;2.43;1.33;;;17.80;99.90;;;;;;5133177;27;20261;-54
2021/05/10 01:46:24;;;;;;;2.13;1.63;;;17.70;99.90;;;;;;5120717;27;20322;-53
2021/05/10 01:48:50;;;;;;;3.30;1.80;;;17.70;99.90;;;;;;5125767;27;20211;-56
2021/05/10 01:51:16;;;;;;;1.80;1.70;;;17.60;99.90;;;;;;5125770;27;20191;-56
2021/05/10 01:53:45;;;;;;;5.37;1.90;;;17.60;99.90;;;;;;5113113;27;20220;-55
2021/05/10 01:56:11;;;;;;;2.03;1.60;;;17.60;99.90;;;;;;5135372;27;20191;-56
2021/05/10 01:58:38;;;;;;;2.37;2.00;;;17.60;99.90;;;;;;5147337;27;20275;-55
2021/05/10 02:01:05;;;;;;;1.63;1.50;;;17.50;99.90;;;;;;5145082;27;20189;-55
2021/05/10 02:03:31;;;;;;;1.60;1.40;;;17.50;99.90;;;;;;5144754;27;20288;-57
2021/05/10 02:05:57;;;;;;;2.03;1.47;;;17.60;99.90;;;;;;5137333;27;20203;-55
2021/05/10 02:08:24;;;;;;;1.67;1.53;;;17.50;99.90;;;;;;5109335;27;20223;-53
2021/05/10 02:10:52;;;;;;;2.57;1.83;;;17.50;99.90;;;;;;5137579;27;20188;-56
2021/05/10 02:13:19;;;;;;;2.07;1.80;;;17.50;99.90;;;;;;5143662;27;20211;-56
2021/05/10 02:15:48;;;;;;;1.50;1.40;;;17.50;99.90;;;;;;5145131;27;20212;-56
2021/05/10 02:18:15;;;;;;;2.97;1.80;;;17.50;99.90;;;;;;5134464;27;20271;-55
2021/05/10 02:20:42;;;;;;;3.47;1.70;;;17.50;99.90;;;;;;5147314;27;20192;-55
2021/05/10 02:23:10;;;;;;;2.57;1.60;;;17.50;99.90;;;;;;5132292;27;20223;-54
2021/05/10 02:25:38;;;;;;;1.50;1.40;;;17.50;99.90;;;;;;5137253;27;20279;-53
2021/05/10 02:28:06;;;;;;;2.03;1.53;;;17.40;99.90;;;;;;5123634;27;20198;-53
2021/05/10 02:30:33;;;;;;;1.73;1.63;;;17.40;99.90;;;;;;5124863;27;20200;-55
2021/05/10 02:33:03;;;;;;;3.10;1.87;;;17.30;99.90;;;;;;5124887;27;20218;-51
2021/05/10 02:35:29;;;;;;;2.33;1.37;;;17.30;99.90;;;;;;5124665;27;20273;-55
2021/05/10 02:37:56;;;;;;;1.73;1.60;;;17.30;99.90;;;;;;5117596;27;20188;-53
2021/05/10 02:40:23;;;;;;;1.90;1.43;;;17.30;99.90;;;;;;5116516;27;20200;-54
2021/05/10 02:42:49;;;;;;;2.30;1.70;;;17.30;99.90;;;;;;5145340;27;20299;-57
2021/05/10 02:45:17;;;;;;;1.67;1.47;;;17.30;99.90;;;;;;5143003;27;20179;-57
2021/05/10 02:47:45;;;;;;;1.80;1.70;;;17.30;99.90;;;;;;5146570;27;20242;-55
2021/05/10 02:50:14;;;;;;;2.83;1.80;;;17.30;99.90;;;;;;5142411;27;20188;-55
2021/05/10 02:52:40;;;;;;;1.70;1.60;;;17.30;99.90;;;;;;5130448;27;20201;-54
2021/05/10 02:55:08;;;;;;;1.60;1.50;;;17.30;99.90;;;;;;5119190;27;20223;-54
2021/05/10 02:57:35;;;;;;;1.97;1.87;;;17.30;99.90;;;;;;5137615;27;20202;-57
2021/05/10 03:00:01;;;;;;;2.40;1.40;;;17.30;99.90;;;;;;5144213;27;20282;-55
2021/05/10 03:02:27;;;;;;;1.70;1.60;;;17.30;99.90;;;;;;5144686;27;20253;-58
2021/05/10 03:04:53;;;;;;;2.40;1.30;;;17.30;99.90;;;;;;5146488;27;20205;-56
2021/05/10 03:07:20;;;;;;;1.57;1.43;;;17.30;99.90;;;;;;5129639;27;20194;-56
2021/05/10 03:09:47;;;;;;;2.97;1.30;;;17.30;99.90;;;;;;5137096;27;20646;-54
2021/05/10 03:12:13;;;;;;;1.53;1.43;;;17.30;99.90;;;;;;5117806;27;20312;-55
2021/05/10 03:14:39;;;;;;;1.40;1.30;;;17.30;99.90;;;;;;5143730;27;20254;-56
2021/05/10 03:17:05;;;;;;;1.70;1.60;;;17.20;99.90;;;;;;5131135;27;20200;-55
2021/05/10 03:19:31;;;;;;;2.67;1.57;;;17.20;99.90;;;;;;5140611;27;20209;-54
2021/05/10 03:21:58;;;;;;;2.33;1.40;;;17.20;99.90;;;;;;5138621;27;20204;-54
2021/05/10 03:24:25;;;;;;;1.77;1.40;;;17.20;99.90;;;;;;5125796;27;20976;-55
2021/05/10 03:26:51;;;;;;;1.83;1.63;;;17.20;99.90;;;;;;5121325;27;20209;-56
2021/05/10 03:29:17;;;;;;;1.40;1.30;;;17.20;99.90;;;;;;5132286;27;20762;-54
2021/05/10 03:31:43;;;;;;;1.70;1.60;;;17.20;99.90;;;;;;5129221;27;20242;-55
2021/05/10 03:34:09;;;;;;;1.60;1.50;;;17.20;99.90;;;;;;5133744;27;20221;-56
2021/05/10 03:36:36;;;;;;;2.57;1.30;;;17.20;99.90;;;;;;5145762;27;20192;-53
2021/05/10 03:39:04;;;;;;;2.10;1.80;;;17.20;99.90;;;;;;5122117;27;20193;-55
2021/05/10 03:41:31;;;;;;;1.50;1.40;;;17.20;99.90;;;;;;5119782;27;20239;-56
2021/05/10 03:43:57;;;;;;;4.27;1.60;;;17.20;99.90;;;;;;5134609;27;20568;-55
2021/05/10 03:46:24;;;;;;;3.03;1.47;;;17.30;99.90;;;;;;5124816;27;20197;-52
2021/05/10 03:48:50;;;;;;;1.80;1.63;;;17.20;99.90;;;;;;5143845;27;20256;-53
2021/05/10 03:51:16;;;;;;;2.57;1.60;;;17.20;99.90;;;;;;5133824;27;20882;-57
2021/05/10 03:53:42;;;;;;;2.03;1.70;;;17.20;99.90;;;;;;5131063;27;20220;-54
2021/05/10 03:56:10;;;;;;;2.63;1.97;;;17.10;99.90;;;;;;5142065;27;20212;-53
2021/05/10 03:58:37;;;;;;;1.53;1.40;;;17.10;99.90;;;;;;5108261;27;20211;-54
2021/05/10 04:01:04;;;;;;;1.90;1.47;;;17.10;99.90;;;;;;5134287;27;20203;-54
2021/05/10 04:03:35;;;;;;;2.37;1.57;;;17.00;99.90;;;;;;5141224;27;20210;-55
2021/05/10 04:06:18;;;;;;;2.80;1.50;;;17.10;99.90;;;;;;5122435;27;20204;-55
2021/05/10 04:13:35;;;;;;;1.70;1.60;;;17.00;99.90;;;;;;5122273;27;20275;-54
2021/05/10 04:14:20;;;;;;;6.27;1.53;;;17.10;99.90;;;;;;5114502;27;20314;-55
2021/05/10 04:16:47;;;;;;;4.20;1.70;;;17.00;99.90;;;;;;5132755;27;20197;-57
2021/05/10 04:19:13;;;;;;;1.80;1.40;;;17.10;99.90;;;;;;5140706;27;20825;-54
2021/05/10 04:21:39;;;;;;;2.27;1.60;;;17.10;99.90;;;;;;5138475;27;20253;-57
2021/05/10 04:24:06;;;;;;;1.50;1.40;;;17.10;99.90;;;;;;5133765;27;20237;-55
2021/05/10 04:26:32;;;;;;;1.87;1.60;;;17.10;99.90;;;;;;5143707;27;20215;-55
2021/05/10 04:28:58;;;;;;;1.97;1.77;;;17.10;99.90;;;;;;5124524;27;20253;-52
2021/05/10 04:31:25;;;;;;;1.50;1.40;;;17.00;99.90;;;;;;5126210;27;20353;-56
2021/05/10 04:33:51;;;;;;;1.97;1.63;;;17.00;99.90;;;;;;5124192;27;20708;-52
2021/05/10 04:36:17;;;;;;;2.27;1.30;;;17.00;99.90;;;;;;5119977;27;20213;-53
2021/05/10 04:38:44;;;;;;;1.50;1.40;;;17.00;99.90;;;;;;5125844;27;20203;-57
2021/05/10 04:41:10;;;;;;;2.67;1.83;;;17.00;99.90;;;;;;5134335;27;20597;-55
2021/05/10 04:43:36;;;;;;;3.53;1.60;;;16.90;99.90;;;;;;5127576;27;20219;-56
2021/05/10 04:46:02;;;;;;;2.97;1.50;;;16.90;99.90;;;;;;5120204;27;20199;-54
2021/05/10 04:48:29;;;;;;;2.33;1.40;;;16.90;99.90;;;;;;5124907;27;20340;-57
2021/05/10 04:50:56;;;;;;;3.20;1.60;;;17.00;99.90;;;;;;5116242;27;20274;-55
2021/05/10 04:53:23;;;;;;;1.83;1.50;;;17.00;99.90;;;;;;5116262;27;20209;-56
2021/05/10 04:55:49;;;;;;;3.43;1.50;;;17.10;99.90;;;;;;5113205;27;20388;-56
2021/05/10 04:58:15;;;;;;;1.60;1.50;;;17.10;99.90;;;;;;5119504;27;20184;-56
2021/05/10 05:00:41;;;;;;;2.50;1.27;;;17.20;99.90;;;;;;5107597;27;20208;-57
2021/05/10 05:03:07;;;;;;;2.10;1.60;;;17.20;99.90;;;;;;5120603;27;20226;-56
2021/05/10 05:05:34;;;;;;;1.47;1.37;;;17.20;99.90;;;;;;5117702;27;20332;-57
2021/05/10 05:08:00;;;;;;;1.57;1.47;;;17.30;99.90;;;;;;5112929;27;20607;-53
2021/05/10 05:10:27;;;;;;;1.97;1.50;;;17.30;99.90;;;;;;5111682;27;20204;-52
2021/05/10 05:12:53;;;;;;;4.27;1.93;;;17.30;99.90;;;;;;5102923;28;20213;-53
2021/05/10 05:15:20;;;;;;;1.50;1.40;;;17.40;99.90;;;;;;5090768;27;20279;-54
2021/05/10 05:17:46;;;;;;;2.13;1.97;;;17.40;99.90;;;;;;5120682;27;20657;-53
2021/05/10 05:20:13;;;;;;;2.60;1.60;;;17.40;99.90;;;;;;5119200;27;20830;-57
2021/05/10 05:22:40;;;;;;;2.33;1.70;;;17.40;99.90;;;;;;5128222;27;20252;-57
2021/05/10 05:25:08;;;;;;;5.33;2.73;;;17.50;99.90;;;;;;5126711;27;20196;-55
2021/05/10 05:27:35;;;;;;;3.30;1.40;;;17.40;99.90;;;;;;5106843;27;20208;-57
2021/05/10 05:30:01;;;;;;;2.13;1.40;;;17.50;99.90;;;;;;5109687;27;20198;-55
2021/05/10 05:32:28;;;;;;;3.07;1.43;;;17.50;99.90;;;;;;5124880;27;20899;-57
2021/05/10 05:34:54;;;;;;;2.07;1.43;;;17.60;99.90;;;;;;5139429;27;20696;-55
2021/05/10 05:37:20;;;;;;;5.83;1.87;;;17.70;99.90;;;;;;5144720;27;20184;-56
2021/05/10 05:39:47;;;;;;;1.70;1.50;;;17.70;99.90;;;;;;5134590;27;20280;-56
2021/05/10 05:42:13;;;;;;;2.07;1.50;;;17.70;99.90;;;;;;5128778;27;20194;-55
2021/05/10 05:44:44;;;;;;;1.50;1.40;;;17.70;99.90;;;;;;5106655;28;20205;-53
2021/05/10 05:47:15;;;;;;;2.63;1.80;;;17.80;99.90;;;;;;5111268;27;20234;-56
2021/05/10 05:49:42;;;;;;;2.83;1.50;;;17.80;99.90;;;;;;5138723;27;20676;-55
2021/05/10 05:52:08;;;;;;;1.57;1.30;;;17.80;99.90;;;;;;5144506;27;20266;-54
2021/05/10 05:54:34;;;;;;;2.37;1.33;;;17.80;99.90;;;;;;5146983;27;20215;-53
2021/05/10 05:57:01;;;;;;;2.37;1.50;;;17.80;99.90;;;;;;5146221;27;20194;-54
2021/05/10 05:59:29;;;;;;;3.23;1.70;;;17.90;99.90;;;;;;5117739;27;20203;-56
2021/05/10 06:01:55;;;;;;;2.37;1.47;;;17.90;99.90;;;;;;5103623;27;20190;-54
2021/05/10 06:04:21;;;;;;;2.00;1.50;;;17.90;99.90;;;;;;5119190;27;20912;-53
2021/05/10 06:06:48;;;;;;;2.57;2.00;;;17.90;99.90;;;;;;5143663;27;20661;-56
2021/05/10 06:09:14;;;;;;;1.53;1.40;;;17.90;99.90;;;;;;5123756;27;20196;-55
2021/05/10 06:11:41;;;;;;;3.23;1.83;;;18.00;99.90;;;;;;5116053;27;20631;-56
2021/05/10 06:14:07;;;;;;;1.63;1.40;;;18.10;99.90;;;;;;5118862;27;20276;-55
2021/05/10 06:16:34;;;;;;;1.63;1.40;;;18.10;99.90;;;;;;5112928;27;20330;-55
2021/05/10 06:19:00;;;;;;;2.70;1.40;;;18.10;99.90;;;;;;5100837;27;20206;-53
2021/05/10 06:21:26;;;;;;;1.80;1.70;;;18.20;99.90;;;;;;5130121;27;20184;-53
2021/05/10 06:23:53;;;;;;;1.60;1.50;;;18.20;99.90;;;;;;5120046;27;20291;-52
2021/05/10 06:26:19;;;;;;;2.50;1.40;;;18.20;99.90;;;;;;5111597;27;20204;-55
2021/05/10 06:28:45;;;;;;;2.80;1.80;;;18.20;99.90;;;;;;5119812;27;20189;-55
2021/05/10 06:31:12;;;;;;;2.00;1.73;;;18.20;99.90;;;;;;5103614;27;20201;-56
2021/05/10 06:33:39;;;;;;;2.27;1.50;;;18.30;99.90;;;;;;5116546;27;20220;-54
2021/05/10 06:36:06;;;;;;;4.63;1.87;;;18.30;99.90;;;;;;5119307;27;20204;-54
2021/05/10 06:38:33;;;;;;;1.83;1.73;;;18.30;99.90;;;;;;5114501;27;20662;-56
2021/05/10 06:40:59;;;;;;;3.30;1.80;;;18.30;99.90;;;;;;5129717;27;20650;-53
2021/05/10 06:43:26;;;;;;;2.20;1.57;;;18.30;99.90;;;;;;5117262;27;20936;-57
2021/05/10 06:45:52;;;;;;;2.10;2.00;;;18.40;99.90;;;;;;5110738;27;20204;-54
2021/05/10 06:48:29;;;;;;;3.50;1.97;;;18.40;99.90;;;;;;5106248;27;20208;-53
2021/05/10 06:50:56;;;;;;;3.13;1.77;;;18.40;99.90;;;;;;5125064;27;20302;-54
2021/05/10 06:53:22;;;;;;;3.20;1.60;;;18.40;99.90;;;;;;5115481;27;20209;-54
2021/05/10 06:55:50;;;;;;;4.43;2.17;;;18.50;99.90;;;;;;5116751;27;20976;-52
2021/05/10 06:58:17;;;;;;;3.23;1.90;;;18.60;99.90;;;;;;5117155;27;20751;-56
2021/05/10 07:00:43;;;;;;;4.57;1.83;;;18.60;99.90;;;;;;5114718;27;20197;-51
2021/05/10 07:03:09;;;;;;;1.60;1.50;;;18.60;99.90;;;;;;5086525;27;20254;-55
2021/05/10 07:05:36;;;;;;;1.80;1.70;;;18.60;99.90;;;;;;5138781;27;20242;-54
2021/05/10 07:08:09;;;;;;;3.00;1.93;;;18.60;99.90;;;;;;5113392;27;20192;-57
2021/05/10 07:10:36;;;;;;;2.67;1.80;;;18.70;99.90;;;;;;5116414;27;20215;-57
2021/05/10 07:13:02;;;;;;;2.17;1.70;;;18.80;99.90;;;;;;5121580;27;20231;-55
2021/05/10 07:15:28;;;;;;;2.30;2.00;;;18.80;99.90;;;;;;5124355;27;20213;-54
2021/05/10 07:18:04;;;;;;;2.13;1.60;;;18.90;99.90;;;;;;5121790;27;20204;-55
2021/05/10 07:20:30;;;;;;;2.97;1.50;;;19.00;99.90;;;;;;5124247;27;20206;-57
2021/05/10 07:22:58;;;;;;;2.20;1.63;;;19.10;99.90;;;;;;5127863;27;20217;-55
2021/05/10 07:25:24;;;;;;;1.90;1.63;;;19.20;99.90;;;;;;5123629;27;20205;-55
2021/05/10 07:27:50;;;;;;;1.70;1.50;;;19.20;99.90;;;;;;5125003;27;20292;-54
2021/05/10 07:30:17;;;;;;;1.90;1.80;;;19.30;99.90;;;;;;5109101;27;20189;-58
2021/05/10 07:32:43;;;;;;;4.70;1.50;;;19.40;99.90;;;;;;5112048;27;20184;-57
2021/05/10 07:35:10;;;;;;;4.83;2.00;;;19.40;99.90;;;;;;5118688;27;20448;-58
2021/05/10 07:37:36;;;;;;;2.17;1.77;;;19.50;99.90;;;;;;5126720;27;20794;-58
2021/05/10 07:40:03;;;;;;;1.97;1.77;;;19.50;99.90;;;;;;5125147;27;20204;-56
2021/05/10 07:42:29;;;;;;;3.70;1.93;;;19.60;99.90;;;;;;5129790;27;20189;-57
2021/05/10 07:44:56;;;;;;;3.90;1.63;;;19.70;99.90;;;;;;5115303;27;20276;-57
2021/05/10 07:47:22;;;;;;;2.60;1.90;;;19.80;99.90;;;;;;5114155;27;20245;-55
2021/05/10 07:49:48;;;;;;;3.63;1.70;;;19.80;99.90;;;;;;5114532;27;20288;-56
2021/05/10 07:52:14;;;;;;;3.43;1.47;;;19.90;99.90;;;;;;5108371;27;20277;-59
2021/05/10 07:54:40;;;;;;;2.03;1.80;;;20.00;99.90;;;;;;5115338;27;20241;-55
2021/05/10 07:57:07;;;;;;;2.10;1.90;;;20.10;99.90;;;;;;5115463;27;20197;-55
2021/05/10 07:59:34;;;;;;;2.77;1.70;;;20.20;99.90;;;;;;5123276;27;20196;-56
2021/05/10 08:02:01;;;;;;;2.80;1.60;;;20.30;99.70;;;;;;5116797;27;20196;-51
2021/05/10 08:04:27;;;;;;;4.17;1.87;;;20.40;99.40;;;;;;5119325;27;20221;-52
2021/05/10 08:06:54;;;;;;;2.93;1.50;;;20.40;99.00;;;;;;5121795;27;20205;-51
2021/05/10 08:09:21;;;;;;;2.57;2.03;;;20.50;98.70;;;;;;5129522;27;20928;-55
2021/05/10 08:11:47;;;;;;;1.80;1.63;;;20.60;98.50;;;;;;5123642;27;20210;-51
2021/05/10 08:14:15;;;;;;;3.17;1.80;;;20.70;98.30;;;;;;5110377;27;20205;-51
2021/05/10 08:16:41;;;;;;;5.60;1.70;;;20.90;98.50;;;;;;5119236;27;20220;-52
2021/05/10 08:19:08;;;;;;;2.20;1.63;;;21.10;98.10;;;;;;5110505;27;20196;-53
2021/05/10 08:21:34;;;;;;;3.27;1.80;;;21.20;97.20;;;;;;5111653;27;20573;-56
2021/05/10 08:24:00;;;;;;;6.90;1.90;;;21.30;96.60;;;;;;5107819;27;20712;-54
2021/05/10 08:26:26;;;;;;;3.03;1.57;;;21.50;96.30;;;;;;5120024;27;20192;-55
2021/05/10 08:28:52;;;;;;;1.70;1.57;;;21.70;95.30;;;;;;5114858;27;20196;-52
2021/05/10 08:31:19;;;;;;;3.13;1.70;;;21.90;93.90;;;;;;5109866;27;20923;-56
2021/05/10 08:33:46;;;;;;;4.50;1.80;;;22.10;93.10;;;;;;5120964;27;20215;-56
2021/05/10 08:36:12;;;;;;;2.43;1.50;;;22.40;92.80;;;;;;5117305;27;20216;-56
2021/05/10 08:38:40;;;;;;;2.67;1.77;;;22.60;92.10;;;;;;5118038;27;20212;-56
2021/05/10 08:41:06;;;;;;;1.97;1.60;;;22.80;90.50;;;;;;5112453;27;20199;-54
2021/05/10 08:43:32;;;;;;;2.00;1.80;;;22.90;88.20;;;;;;5120666;27;20296;-53
2021/05/10 08:46:00;;;;;;;4.23;1.77;;;22.90;87.20;;;;;;5105295;27;20218;-53
2021/05/10 08:48:27;;;;;;;2.03;1.50;;;23.00;85.00;;;;;;5112660;27;21391;-54
2021/05/10 08:50:54;;;;;;;2.20;1.50;;;23.00;85.70;;;;;;5099027;27;20653;-53
2021/05/10 08:53:34;;;;;;;5.30;1.70;;;23.10;85.20;;;;;;5101751;27;20232;-52
2021/05/10 08:56:00;;;;;;;3.70;1.90;;;23.10;82.60;;;;;;5116305;27;20212;-56
2021/05/10 08:58:27;;;;;;;3.03;1.63;;;23.20;84.40;;;;;;5102440;27;20246;-51
2021/05/10 09:00:55;;;;;;;4.83;1.87;;;23.20;84.30;;;;;;5116537;27;20197;-53
2021/05/10 09:03:21;;;;;;;2.08;1.73;;;23.30;83.20;;;;;;5114412;27;20236;-55
2021/05/10 09:05:50;;;;;;;7.35;2.10;;;23.50;81.70;;;;;;5133029;27;20188;-54
2021/05/10 09:08:16;;;;;;;6.28;1.95;;;23.60;82.20;;;;;;5112678;27;20208;-54
2021/05/10 09:11:07;;;;;;;1.85;1.60;;;23.60;83.60;;;;;;5117040;27;20205;-56
2021/05/10 09:13:38;;;;;;;2.15;1.27;;;23.70;84.90;;;;;;5105957;27;20222;-55
2021/05/10 09:16:05;;;;;;;2.25;1.50;;;23.70;81.60;;;;;;5127524;27;20217;-54
2021/05/10 09:18:31;;;;;;;1.65;1.55;;;23.80;79.50;;;;;;5115769;27;20231;-56
2021/05/10 09:21:11;;;;;;;1.30;1.20;;;23.90;75.60;;;;;;5117257;27;20199;-55
2021/05/10 09:23:37;;;;;;;1.80;1.00;;;23.90;74.20;;;;;;5102042;27;20220;-55
2021/05/10 09:26:03;;;;;;;3.75;1.73;;;24.00;73.60;;;;;;5137827;27;20425;-52
2021/05/10 09:28:36;;;;;;;6.38;1.90;;;24.00;71.70;;;;;;5117902;27;20324;-56
2021/05/10 09:31:05;;;;;;;1.83;1.55;;;24.20;70.90;;;;;;5116528;27;20197;-54
2021/05/10 09:33:32;;;;;;;1.40;1.17;;;24.40;69.90;;;;;;5121531;27;20428;-55
2021/05/10 09:36:00;;;;;;;1.88;1.40;;;24.40;68.60;;;;;;5101561;27;20756;-55
2021/05/10 09:38:29;;;;;;;3.10;1.67;;;24.50;68.20;;;;;;5109704;27;20200;-55
2021/05/10 09:40:57;;;;;;;4.13;1.25;;;24.60;67.90;;;;;;5120059;27;20208;-57
2021/05/10 09:43:25;;;;;;;2.38;1.15;;;24.60;68.70;;;;;;5112220;27;20548;-56
2021/05/10 09:45:52;;;;;;;1.65;1.48;;;24.60;68.10;;;;;;5122044;27;20201;-56
2021/05/10 09:48:25;;;;;;;3.17;1.63;;;24.70;68.00;;;;;;5112572;27;20196;-54
2021/05/10 09:50:54;;;;;;;2.50;1.40;;;24.80;65.20;;;;;;5120877;27;20714;-52
2021/05/10 09:53:28;;;;;;;2.65;0.98;;;24.90;66.00;;;;;;5114131;27;20217;-53
2021/05/10 09:55:56;;;;;;;2.17;1.23;;;25.00;65.90;;;;;;5119975;27;20232;-55
2021/05/10 09:58:24;;;;;;;4.28;1.42;;;25.10;64.50;;;;;;5096623;27;20211;-55
2021/05/10 10:00:56;;;;;;;1.85;1.27;;;25.20;63.20;;;;;;5129630;27;20784;-52
2021/05/10 10:03:28;;;;;;;1.00;0.95;;;25.20;62.60;;;;;;5116182;27;20252;-54
2021/05/10 10:05:56;;;;;;;2.38;1.33;;;25.30;62.60;;;;;;5134417;27;20315;-57
2021/05/10 10:08:23;;;;;;;5.55;1.42;;;25.40;62.50;;;;;;5104783;27;20348;-51
2021/05/10 10:10:49;;;;;;;2.65;1.20;;;25.50;62.90;;;;;;5120588;27;20284;-53
2021/05/10 10:13:18;;;;;;;1.20;1.20;;;25.50;60.90;;;;;;5116841;27;20299;-53
2021/05/10 10:15:46;;;;;;;2.00;1.00;;;25.60;60.90;;;;;;5124871;27;20769;-53
2021/05/10 10:18:15;;;;;;;3.35;1.13;;;25.60;61.50;;;;;;5132689;27;20219;-55
2021/05/10 10:20:42;;;;;;;1.77;1.60;;;25.70;60.40;;;;;;5117878;27;20201;-54
2021/05/10 10:23:10;;;;;;;1.98;1.17;;;25.60;60.90;;;;;;5122637;27;20336;-56
2021/05/10 10:25:37;;;;;;;4.53;1.73;;;25.80;60.70;;;;;;5107203;27;20299;-55
2021/05/10 10:28:05;;;;;;;1.48;1.20;;;25.80;59.70;;;;;;5121239;27;20201;-54
2021/05/10 10:30:36;;;;;;;1.20;1.10;;;25.90;59.30;;;;;;5107683;27;20211;-55
2021/05/10 10:33:06;;;;;;;3.88;1.45;;;25.80;58.00;;;;;;5114694;27;20215;-55
2021/05/10 10:35:35;;;;;;;5.55;2.08;;;25.80;59.30;;;;;;5129605;27;20224;-56
2021/05/10 10:38:02;;;;;;;2.17;1.38;;;25.90;57.80;;;;;;5119486;27;20283;-53
2021/05/10 10:40:29;;;;;;;3.47;1.50;;;26.00;58.10;;;;;;5099723;27;20236;-53
2021/05/10 10:43:20;;;;;;;3.28;1.45;;;26.00;58.10;;;;;;5107960;27;20216;-53
2021/05/10 10:46:19;;;;;;;4.13;1.30;;;26.10;59.40;;;;;;5112573;27;20231;-50
2021/05/10 10:48:46;;;;;;;2.92;1.50;;;26.20;55.70;;;;;;5122291;27;20275;-49
2021/05/10 10:51:14;;;;;;;2.53;1.42;;;26.30;58.00;;;;;;5114718;27;20561;-55
2021/05/10 10:53:42;;;;;;;3.38;1.40;;;26.30;57.00;;;;;;5112543;27;20288;-50
2021/05/10 10:56:08;;;;;;;2.40;1.20;;;26.50;57.90;;;;;;5102753;27;20278;-56
2021/05/10 10:58:35;;;;;;;3.22;1.33;;;26.60;58.40;;;;;;5131646;27;20945;-53
2021/05/10 11:01:06;;;;;;;2.67;1.80;;;26.80;57.20;;;;;;5103969;27;20665;-57
2021/05/10 11:03:34;;;;;;;1.55;1.45;;;26.90;54.80;;;;;;5106163;27;20216;-52
2021/05/10 11:06:01;;;;;;;2.28;1.27;;;26.80;54.40;;;;;;5099631;27;20215;-52
2021/05/10 11:08:48;;;;;;;3.65;1.30;;;26.80;54.60;;;;;;5107111;27;20192;-54
2021/05/10 11:11:39;;;;;;;1.42;1.30;;;26.80;54.80;;;;;;5118963;27;20256;-53
2021/05/10 11:14:05;;;;;;;2.35;1.70;;;26.90;55.20;;;;;;5105831;27;20804;-54
2021/05/10 11:16:50;;;;;;;4.38;1.90;;;27.00;55.10;;;;;;5126698;27;20981;-56
2021/05/10 11:19:30;;;;;;;2.88;1.70;;;26.90;52.90;;;;;;5115856;27;20275;-52
2021/05/10 11:21:56;;;;;;;3.92;1.35;;;26.80;52.80;;;;;;5119194;27;20225;-54
2021/05/10 11:24:31;;;;;;;3.40;1.52;;;26.60;54.70;;;;;;5107301;27;20222;-54
2021/05/10 11:27:01;;;;;;;1.73;1.23;;;26.50;55.10;;;;;;5124408;27;20198;-54
2021/05/10 11:29:46;;;;;;;2.58;1.45;;;26.30;54.50;;;;;;5111747;27;20976;-55
2021/05/10 11:32:31;;;;;;;5.05;1.83;;;26.20;54.90;;;;;;5118374;27;20304;-54
2021/05/10 11:35:21;;;;;;;4.43;1.48;;;26.30;55.30;;;;;;5124716;27;20219;-55
2021/05/10 11:37:58;;;;;;;2.50;1.88;;;26.30;56.30;;;;;;5124789;27;20189;-54
2021/05/10 11:40:25;;;;;;;1.83;1.50;;;26.40;56.80;;;;;;5107301;27;20192;-56
2021/05/10 11:42:52;;;;;;;6.60;1.67;;;26.40;56.00;;;;;;5122291;27;20216;-54
2021/05/10 11:45:18;;;;;;;4.25;1.80;;;26.30;55.40;;;;;;5126292;27;20794;-54
2021/05/10 11:47:48;;;;;;;4.65;1.48;;;26.20;56.50;;;;;;5113544;27;20208;-49
2021/05/10 11:50:14;;;;;;;1.48;1.30;;;26.10;57.30;;;;;;5117113;27;20204;-55
2021/05/10 11:52:40;;;;;;;4.40;2.00;;;26.00;56.60;;;;;;5111165;27;20193;-54
2021/05/10 11:55:07;;;;;;;3.28;1.40;;;25.90;57.00;;;;;;5103178;27;20244;-55
2021/05/10 11:57:37;;;;;;;6.10;1.35;;;25.90;57.50;;;;;;5117960;27;20197;-48
2021/05/10 12:00:12;;;;;;;2.05;1.40;;;25.80;56.50;;;;;;5104875;27;20209;-54
2021/05/10 12:02:41;;;;;;;2.65;1.60;;;25.80;56.60;;;;;;5110688;27;20215;-49
2021/05/10 12:05:10;;;;;;;3.35;1.73;;;25.70;57.00;;;;;;5111811;27;20201;-55
2021/05/10 12:07:37;;;;;;;2.35;1.48;;;25.70;56.60;;;;;;5119656;27;20196;-48
2021/05/10 12:10:04;;;;;;;2.75;1.55;;;25.80;57.10;;;;;;5110527;27;20200;-55
2021/05/10 12:12:35;;;;;;;2.47;1.13;;;25.80;57.10;;;;;;5107421;27;20960;-55
2021/05/10 12:15:15;;;;;;;2.88;1.55;;;25.90;57.10;;;;;;5098389;27;20209;-56
2021/05/10 12:17:44;;;;;;;2.95;1.48;;;25.90;56.90;;;;;;5116519;27;20245;-55
2021/05/10 12:20:14;;;;;;;1.52;1.33;;;25.90;57.70;;;;;;5110899;27;20585;-57
2021/05/10 12:22:42;;;;;;;1.30;1.20;;;26.00;58.60;;;;;;5129664;27;20193;-57
2021/05/10 12:25:17;;;;;;;2.67;1.30;;;26.00;57.30;;;;;;5121683;27;20238;-57
2021/05/10 12:27:48;;;;;;;4.13;2.03;;;25.90;57.10;;;;;;5106534;27;20646;-51
2021/05/10 12:30:24;;;;;;;2.53;1.38;;;25.70;56.80;;;;;;5105763;27;20197;-55
2021/05/10 12:32:51;;;;;;;2.00;1.77;;;25.70;57.30;;;;;;5133834;27;20298;-54
2021/05/10 12:35:22;;;;;;;1.40;1.33;;;25.70;57.80;;;;;;5122412;27;20216;-56
2021/05/10 12:37:50;;;;;;;4.18;1.77;;;25.70;57.40;;;;;;5123526;27;20242;-53
2021/05/10 12:40:18;;;;;;;1.60;1.40;;;25.70;57.70;;;;;;5117174;27;20222;-57
2021/05/10 12:42:46;;;;;;;2.88;1.30;;;25.60;57.00;;;;;;5131594;27;20211;-55
2021/05/10 12:45:14;;;;;;;1.65;1.00;;;25.50;57.20;;;;;;5123607;27;20188;-55
2021/05/10 12:47:50;;;;;;;4.63;1.48;;;25.50;57.00;;;;;;5116796;27;20204;-51
2021/05/10 12:50:35;;;;;;;2.65;1.23;;;25.40;57.20;;;;;;5117975;27;20563;-55
2021/05/10 12:53:03;;;;;;;2.65;1.55;;;25.40;57.30;;;;;;5112806;28;20281;-56
2021/05/10 12:55:31;;;;;;;2.67;1.13;;;25.40;57.50;;;;;;5114285;27;20296;-55